Terminal Aerodrome Forecast
Issued by NWS St Louis, MO

Home | Current Version | Previous Version | Text Only | Print | Product List | Glossary On
Versions: 1 2 3 4 5 6 7 8 9 10 11 12 13 14 15 16 17 18 19 20 21 22 23
000
FTUS43 KLSX 101504 AAA
TAFSTL
TAF AMD
KSTL 101504Z 1015/1118 15007KT P6SM OVC060
     FM110600 16009KT P6SM OVC050 WS014/23040KT
     FM111200 16009KT P6SM OVC040=

USA.gov is the U.S. government's official web portal to all federal, state and local government web resources and services.